createdAt,value
2023-01-19T00:00:56.909Z,1.12
2023-01-19T00:03:23.874Z,1.13
2023-01-19T00:05:51.405Z,1.16
2023-01-19T00:08:18.845Z,1.17
2023-01-19T00:10:51.094Z,1.22
2023-01-19T00:13:18.381Z,1.23
2023-01-19T00:15:45.372Z,1.28
2023-01-19T00:18:12.471Z,1.30
2023-01-19T00:20:41.098Z,1.33
2023-01-19T00:23:08.805Z,1.34
2023-01-19T00:25:42.593Z,1.37
2023-01-19T00:28:16.057Z,1.41
2023-01-19T00:30:43.736Z,1.42
2023-01-19T00:33:15.916Z,1.44
2023-01-19T00:35:43.688Z,1.46
2023-01-19T00:38:12.532Z,1.48
2023-01-19T00:40:39.571Z,1.50
2023-01-19T00:43:06.573Z,1.49
2023-01-19T00:45:34.049Z,1.50
2023-01-19T00:48:01.527Z,1.50
2023-01-19T00:50:30.619Z,1.49
2023-01-19T00:53:01.086Z,1.48
2023-01-19T00:55:30.937Z,1.43
2023-01-19T00:57:58.503Z,1.36
2023-01-19T01:00:26.505Z,1.32
2023-01-19T01:02:54.353Z,1.31
2023-01-19T01:05:21.756Z,1.30
2023-01-19T01:07:49.790Z,1.31
2023-01-19T01:10:34.867Z,1.31
2023-01-19T01:13:20.538Z,1.33
2023-01-19T01:15:53.840Z,1.35
2023-01-19T01:18:21.624Z,1.38
2023-01-19T01:20:48.851Z,1.42
2023-01-19T01:23:15.935Z,1.44
2023-01-19T01:25:43.457Z,1.45
2023-01-19T01:28:10.462Z,1.48
2023-01-19T01:30:41.133Z,1.50
2023-01-19T01:33:08.323Z,1.53
2023-01-19T01:35:35.295Z,1.57
2023-01-19T01:38:02.296Z,1.60
2023-01-19T01:40:29.945Z,1.61
2023-01-19T01:42:57.042Z,1.60
2023-01-19T01:45:38.407Z,1.62
2023-01-19T01:48:30.779Z,1.64
2023-01-19T01:51:22.661Z,1.67
2023-01-19T01:53:59.197Z,1.65
2023-01-19T01:56:34.962Z,1.61
2023-01-19T01:59:09.500Z,1.54
2023-01-19T02:01:55.673Z,1.45
2023-01-19T02:04:24.018Z,1.38
2023-01-19T02:07:09.538Z,1.37
2023-01-19T02:09:56.620Z,1.36
2023-01-19T02:12:42.569Z,1.38
2023-01-19T02:15:20.619Z,1.42
2023-01-19T02:17:48.170Z,1.44
2023-01-19T02:20:16.122Z,1.48
2023-01-19T02:22:50.047Z,1.52
2023-01-19T02:25:19.399Z,1.54
2023-01-19T02:27:48.068Z,1.55
2023-01-19T02:30:16.726Z,1.54
2023-01-19T02:32:44.281Z,1.52
2023-01-19T02:35:13.042Z,1.48
2023-01-19T02:37:42.099Z,1.42
2023-01-19T02:40:13.956Z,1.37
2023-01-19T02:42:49.924Z,1.32
2023-01-19T02:45:22.230Z,1.31
2023-01-19T02:47:52.921Z,1.29
2023-01-19T02:50:50.467Z,1.28
2023-01-19T02:54:04.026Z,1.24
2023-01-19T02:56:37.217Z,1.18
2023-01-19T02:59:39.184Z,1.13
2023-01-19T03:02:29.573Z,1.10
2023-01-19T03:05:08.605Z,1.09
2023-01-19T03:08:26.857Z,1.10
2023-01-19T03:11:04.726Z,1.08
2023-01-19T03:13:52.902Z,1.06
2023-01-19T03:16:39.089Z,1.06
2023-01-19T03:19:19.742Z,1.05
2023-01-19T03:21:54.679Z,1.03
2023-01-19T03:24:25.140Z,0.99
2023-01-19T03:27:00.896Z,1.00
2023-01-19T03:29:37.194Z,1.00
2023-01-19T03:32:11.285Z,0.98
2023-01-19T03:34:41.836Z,0.98
2023-01-19T03:37:13.975Z,0.95
2023-01-19T03:39:41.200Z,0.95
2023-01-19T03:42:16.920Z,0.96
2023-01-19T03:44:50.544Z,0.98
2023-01-19T03:47:20.132Z,0.96
2023-01-19T03:49:51.654Z,0.94
2023-01-19T03:52:27.444Z,0.87
2023-01-19T03:54:54.533Z,0.83
2023-01-19T03:57:22.128Z,0.77
2023-01-19T03:59:49.563Z,0.73
2023-01-19T04:02:16.647Z,0.69
2023-01-19T04:04:43.709Z,0.64
2023-01-19T04:07:11.562Z,0.59
2023-01-19T04:09:38.574Z,0.58
2023-01-19T04:12:05.769Z,0.57
2023-01-19T04:14:32.908Z,0.58
2023-01-19T04:17:00.305Z,0.59
2023-01-19T04:19:27.411Z,0.59
2023-01-19T04:21:55.388Z,0.58
2023-01-19T04:24:22.491Z,0.52
2023-01-19T04:26:53.398Z,0.49
2023-01-19T04:29:20.485Z,0.44
2023-01-19T04:31:47.425Z,0.44
2023-01-19T04:34:14.463Z,0.45
2023-01-19T04:36:41.460Z,0.43
2023-01-19T04:39:09.210Z,0.41
2023-01-19T04:41:36.283Z,0.42
2023-01-19T04:44:04.094Z,0.44
2023-01-19T04:46:31.098Z,0.45
2023-01-19T04:48:58.148Z,0.47
2023-01-19T04:51:25.161Z,0.47
2023-01-19T04:53:52.112Z,0.48
2023-01-19T04:56:19.083Z,0.50
2023-01-19T04:58:46.103Z,0.53
2023-01-19T05:01:13.169Z,0.54
2023-01-19T05:03:40.353Z,0.54
2023-01-19T05:06:07.902Z,0.57
2023-01-19T05:08:34.955Z,0.60
2023-01-19T05:11:01.955Z,0.60
2023-01-19T05:13:29.037Z,0.63
2023-01-19T05:15:56.016Z,0.65
2023-01-19T05:18:23.063Z,0.65
2023-01-19T05:20:50.219Z,0.68
2023-01-19T05:23:17.290Z,0.68
2023-01-19T05:25:44.567Z,0.69
2023-01-19T05:28:11.868Z,0.68
2023-01-19T05:30:39.055Z,0.70
2023-01-19T05:33:06.032Z,0.69
2023-01-19T05:35:36.314Z,0.70
2023-01-19T05:38:04.169Z,0.68
2023-01-19T05:40:31.347Z,0.68
2023-01-19T05:43:01.758Z,0.67
2023-01-19T05:45:28.997Z,0.67
2023-01-19T05:47:56.067Z,0.69
2023-01-19T05:50:23.302Z,0.81
2023-01-19T05:52:53.133Z,0.90
2023-01-19T05:55:21.202Z,1.07
2023-01-19T05:57:48.183Z,1.20
2023-01-19T06:00:16.084Z,1.36
2023-01-19T06:02:43.576Z,1.45
2023-01-19T06:05:10.681Z,1.55
2023-01-19T06:07:37.722Z,1.61
2023-01-19T06:10:05.710Z,1.67
2023-01-19T06:12:32.677Z,1.74
2023-01-19T06:14:59.633Z,1.79
2023-01-19T06:17:26.653Z,1.84
2023-01-19T06:19:53.617Z,1.86
2023-01-19T06:22:20.804Z,1.86
2023-01-19T06:24:47.772Z,1.76
2023-01-19T06:27:14.789Z,1.61
2023-01-19T06:29:42.065Z,1.46
2023-01-19T06:32:09.037Z,1.35
2023-01-19T06:34:36.029Z,1.26
2023-01-19T06:37:03.903Z,1.18
2023-01-19T06:39:31.263Z,1.09
2023-01-19T06:41:58.259Z,1.06
2023-01-19T06:44:25.767Z,0.99
2023-01-19T06:46:53.336Z,0.92
2023-01-19T06:49:40.763Z,0.88
2023-01-19T06:52:11.487Z,0.85
2023-01-19T06:54:38.455Z,0.82
2023-01-19T06:57:05.611Z,0.77
2023-01-19T06:59:32.599Z,0.73
2023-01-19T07:01:59.744Z,0.72
2023-01-19T07:04:27.124Z,0.70
2023-01-19T07:06:54.116Z,0.66
2023-01-19T07:09:21.301Z,0.65
2023-01-19T07:11:48.519Z,0.60
2023-01-19T07:14:16.467Z,0.59
2023-01-19T07:16:43.607Z,0.60
2023-01-19T07:19:14.373Z,0.60
2023-01-19T07:21:41.350Z,0.63
2023-01-19T07:24:08.421Z,0.62
2023-01-19T07:26:35.405Z,0.62
2023-01-19T07:29:02.413Z,0.62
2023-01-19T07:31:29.401Z,0.62
2023-01-19T07:33:56.581Z,0.64
2023-01-19T07:36:23.661Z,0.67
2023-01-19T07:38:50.659Z,0.66
2023-01-19T07:41:17.610Z,0.69
2023-01-19T07:43:44.617Z,0.70
2023-01-19T07:46:11.678Z,0.72
2023-01-19T07:48:38.707Z,0.77
2023-01-19T07:51:10.435Z,0.83
2023-01-19T07:53:40.033Z,0.87
2023-01-19T07:56:07.770Z,0.88
2023-01-19T07:58:34.733Z,0.90
2023-01-19T08:01:07.607Z,0.93
2023-01-19T08:03:34.795Z,0.91
2023-01-19T08:06:02.630Z,0.95
2023-01-19T08:08:30.165Z,1.00
2023-01-19T08:10:57.115Z,1.03
2023-01-19T08:13:24.724Z,1.07
2023-01-19T08:15:53.779Z,1.11
2023-01-19T08:18:21.599Z,1.15
2023-01-19T08:20:48.783Z,1.19
2023-01-19T08:23:15.747Z,1.21
2023-01-19T08:25:45.134Z,1.22
2023-01-19T08:28:15.927Z,1.23
2023-01-19T08:30:45.089Z,1.21
2023-01-19T08:33:13.310Z,1.18
2023-01-19T08:35:43.582Z,1.18
2023-01-19T08:38:11.230Z,1.16
2023-01-19T08:40:41.096Z,1.15
2023-01-19T08:43:13.227Z,1.14
2023-01-19T08:45:48.129Z,1.13
2023-01-19T08:48:18.723Z,1.12
2023-01-19T08:50:47.712Z,1.13
2023-01-19T08:53:15.976Z,1.14
2023-01-19T08:55:43.225Z,1.14
2023-01-19T08:58:10.797Z,1.18
2023-01-19T09:00:39.653Z,1.18
2023-01-19T09:03:11.364Z,1.23
2023-01-19T09:05:39.588Z,1.27
2023-01-19T09:08:11.011Z,1.30
2023-01-19T09:10:39.952Z,1.38
2023-01-19T09:13:11.034Z,1.48
2023-01-19T09:15:40.261Z,1.55
2023-01-19T09:18:13.673Z,1.74
2023-01-19T09:20:45.160Z,1.96
2023-01-19T09:23:16.527Z,2.17
2023-01-19T09:25:46.290Z,2.26
2023-01-19T09:28:16.438Z,2.31
2023-01-19T09:30:44.743Z,2.30
2023-01-19T09:33:16.008Z,2.30
2023-01-19T09:35:45.510Z,2.31
2023-01-19T09:38:15.245Z,2.33
2023-01-19T09:40:56.399Z,2.33
2023-01-19T09:43:54.629Z,2.33
2023-01-19T09:46:39.601Z,2.29
2023-01-19T09:49:33.420Z,2.27
2023-01-19T09:52:00.820Z,2.24
2023-01-19T09:54:50.186Z,2.22
2023-01-19T09:57:17.183Z,2.16
2023-01-19T09:59:47.784Z,2.15
2023-01-19T10:02:39.084Z,2.14
2023-01-19T10:05:23.837Z,2.14
2023-01-19T10:08:23.128Z,2.19
2023-01-19T10:10:56.717Z,2.20
2023-01-19T10:13:49.704Z,2.29
2023-01-19T10:16:53.177Z,2.34
2023-01-19T10:19:32.726Z,2.33
2023-01-19T10:22:10.590Z,2.40
2023-01-19T10:24:43.458Z,2.46
2023-01-19T10:27:20.816Z,2.46
2023-01-19T10:29:48.305Z,2.51
2023-01-19T10:32:30.790Z,2.55
2023-01-19T10:34:59.796Z,2.54
2023-01-19T10:37:37.770Z,2.56
2023-01-19T10:40:10.755Z,2.60
2023-01-19T10:42:41.896Z,2.60
2023-01-19T10:45:23.616Z,2.62
2023-01-19T10:47:52.800Z,2.60
2023-01-19T10:50:37.200Z,2.67
2023-01-19T10:53:06.562Z,2.79
2023-01-19T10:55:40.143Z,3.07
2023-01-19T10:58:31.142Z,3.34
2023-01-19T11:01:26.017Z,3.43
2023-01-19T11:03:55.452Z,3.43
2023-01-19T11:06:30.736Z,3.49
2023-01-19T11:09:20.116Z,3.58
2023-01-19T11:11:52.886Z,3.71
2023-01-19T11:14:26.389Z,3.84
2023-01-19T11:16:57.861Z,3.92
2023-01-19T11:19:30.071Z,3.99
2023-01-19T11:22:21.616Z,4.08
2023-01-19T11:24:49.924Z,4.04
2023-01-19T11:27:20.410Z,3.94
2023-01-19T11:29:53.996Z,3.82
2023-01-19T11:32:23.419Z,3.81
2023-01-19T11:34:50.781Z,3.80
2023-01-19T11:37:20.514Z,3.78
2023-01-19T11:39:51.928Z,3.75
2023-01-19T11:42:20.876Z,3.77
2023-01-19T11:44:59.720Z,3.74
2023-01-19T11:47:45.949Z,3.69
2023-01-19T11:50:34.681Z,3.68
2023-01-19T11:53:10.948Z,3.67
2023-01-19T11:55:49.825Z,3.67
2023-01-19T11:58:19.352Z,3.64
2023-01-19T12:01:21.076Z,3.68
2023-01-19T12:04:16.056Z,3.71
2023-01-19T12:06:50.037Z,3.74
2023-01-19T12:09:42.687Z,3.75
2023-01-19T12:12:29.022Z,3.82
2023-01-19T12:15:33.964Z,3.87
2023-01-19T12:18:05.334Z,3.93
2023-01-19T12:20:40.690Z,4.00
2023-01-19T12:23:10.652Z,4.04
2023-01-19T12:25:59.491Z,4.08
2023-01-19T12:28:34.981Z,4.07
2023-01-19T12:31:03.178Z,4.07
2023-01-19T12:33:39.919Z,4.07
2023-01-19T12:36:41.116Z,4.08
2023-01-19T12:39:21.873Z,4.13
2023-01-19T12:42:03.995Z,4.16
2023-01-19T12:44:34.230Z,4.19
2023-01-19T12:47:21.002Z,4.24
2023-01-19T12:49:55.177Z,4.26
2023-01-19T12:52:39.290Z,4.26
2023-01-19T12:55:34.552Z,4.31
2023-01-19T12:58:10.623Z,4.31
2023-01-19T13:00:50.325Z,4.31
2023-01-19T13:03:17.347Z,4.32
2023-01-19T13:05:44.304Z,4.35
2023-01-19T13:08:13.942Z,4.38
2023-01-19T13:10:56.267Z,4.42
2023-01-19T13:13:42.362Z,4.40
2023-01-19T13:16:18.816Z,4.45
2023-01-19T13:18:56.161Z,4.49
2023-01-19T13:21:30.273Z,4.61
2023-01-19T13:24:22.506Z,4.70
2023-01-19T13:26:49.457Z,4.88
2023-01-19T13:29:33.924Z,5.02
2023-01-19T13:32:06.405Z,5.08
2023-01-19T13:34:39.117Z,5.13
2023-01-19T13:37:15.106Z,5.11
2023-01-19T13:39:45.717Z,5.05
2023-01-19T13:42:31.579Z,5.03
2023-01-19T13:45:04.639Z,4.98
2023-01-19T13:47:45.909Z,4.94
2023-01-19T13:50:26.351Z,4.88
2023-01-19T13:52:55.722Z,4.85
2023-01-19T13:55:25.072Z,4.85
2023-01-19T13:57:53.127Z,4.83
2023-01-19T14:00:24.916Z,4.80
2023-01-19T14:03:00.898Z,4.76
2023-01-19T14:05:35.352Z,4.76
2023-01-19T14:08:08.464Z,4.75
2023-01-19T14:10:39.853Z,4.75
2023-01-19T14:13:44.706Z,4.78
2023-01-19T14:16:17.892Z,4.74
2023-01-19T14:18:44.943Z,4.66
2023-01-19T14:21:15.683Z,4.61
2023-01-19T14:24:07.844Z,4.62
2023-01-19T14:26:38.137Z,4.59
2023-01-19T14:29:32.854Z,4.57
2023-01-19T14:32:00.249Z,4.48
2023-01-19T14:34:50.336Z,4.39
2023-01-19T14:37:28.300Z,4.30
2023-01-19T14:40:04.774Z,4.26
2023-01-19T14:42:42.344Z,4.16
2023-01-19T14:45:24.922Z,4.10
2023-01-19T14:48:29.341Z,4.02
2023-01-19T14:51:04.401Z,3.96
2023-01-19T14:53:38.531Z,3.95
2023-01-19T14:56:07.209Z,3.97
2023-01-19T14:58:35.717Z,4.00
2023-01-19T15:01:04.623Z,4.01
2023-01-19T15:03:44.849Z,4.04
2023-01-19T15:06:17.181Z,4.03
2023-01-19T15:08:45.543Z,3.97
2023-01-19T15:11:33.948Z,3.86
2023-01-19T15:14:02.659Z,3.70
2023-01-19T15:16:34.064Z,3.57
2023-01-19T15:19:01.221Z,3.43
2023-01-19T15:21:28.267Z,3.32
2023-01-19T15:23:55.818Z,3.18
2023-01-19T15:26:26.019Z,3.08
2023-01-19T15:28:53.651Z,2.98
2023-01-19T15:31:24.632Z,2.92
2023-01-19T15:33:52.009Z,2.83
2023-01-19T15:36:21.953Z,2.76
2023-01-19T15:38:51.112Z,2.72
2023-01-19T15:41:29.813Z,2.68
2023-01-19T15:43:57.423Z,2.63
2023-01-19T15:46:26.179Z,2.58
2023-01-19T15:48:55.260Z,2.52
2023-01-19T15:51:25.909Z,2.49
2023-01-19T15:53:55.282Z,2.45
2023-01-19T15:56:29.270Z,2.41
2023-01-19T15:58:58.663Z,2.40
2023-01-19T16:01:31.560Z,2.35
2023-01-19T16:04:01.548Z,2.28
2023-01-19T16:06:30.707Z,2.21
2023-01-19T16:09:01.889Z,2.12
2023-01-19T16:11:33.684Z,2.03
2023-01-19T16:14:01.647Z,1.96
2023-01-19T16:16:28.847Z,1.90
2023-01-19T16:18:56.512Z,1.85
2023-01-19T16:21:23.897Z,1.81
2023-01-19T16:23:51.351Z,1.78
2023-01-19T16:26:35.012Z,1.76
2023-01-19T16:29:09.930Z,1.68
2023-01-19T16:31:42.386Z,1.64
2023-01-19T16:34:10.203Z,1.60
2023-01-19T16:36:40.478Z,1.54
2023-01-19T16:39:14.121Z,1.52
2023-01-19T16:41:42.979Z,1.50
2023-01-19T16:44:15.073Z,1.45
2023-01-19T16:46:45.409Z,1.42
2023-01-19T16:49:16.720Z,1.38
2023-01-19T16:51:43.846Z,1.32
2023-01-19T16:54:20.169Z,1.31
2023-01-19T16:56:47.644Z,1.22
2023-01-19T16:59:17.268Z,1.16
2023-01-19T17:01:45.527Z,1.11
2023-01-19T17:04:14.062Z,1.07
2023-01-19T17:06:41.124Z,1.06
2023-01-19T17:09:12.104Z,1.05
2023-01-19T17:11:42.988Z,1.00
2023-01-19T17:14:20.916Z,0.99
2023-01-19T17:16:48.993Z,0.95
2023-01-19T17:19:20.074Z,0.92
2023-01-19T17:21:49.715Z,0.90
2023-01-19T17:24:17.600Z,0.86
2023-01-19T17:26:45.978Z,0.82
2023-01-19T17:29:13.105Z,0.78
2023-01-19T17:31:40.337Z,0.75
2023-01-19T17:34:08.856Z,0.72
2023-01-19T17:36:36.569Z,0.69
2023-01-19T17:39:11.525Z,0.68
2023-01-19T17:41:38.730Z,0.66
2023-01-19T17:44:06.485Z,0.64
2023-01-19T17:46:37.750Z,0.60
2023-01-19T17:49:07.270Z,0.56
2023-01-19T17:51:35.573Z,0.53
2023-01-19T17:54:04.555Z,0.49
2023-01-19T17:56:36.731Z,0.44
2023-01-19T17:59:08.090Z,0.41
2023-01-19T18:01:40.350Z,0.37
2023-01-19T18:04:09.242Z,0.34
2023-01-19T18:06:39.128Z,0.27
2023-01-19T18:09:07.388Z,0.23
2023-01-19T18:11:35.499Z,0.20
2023-01-19T18:14:02.846Z,0.18
2023-01-19T18:16:30.708Z,0.18
2023-01-19T18:19:01.115Z,0.18
2023-01-19T18:21:30.787Z,0.15
2023-01-19T18:24:03.883Z,0.13
2023-01-19T18:26:33.589Z,0.11
2023-01-19T18:29:01.100Z,0.12
2023-01-19T18:31:28.204Z,0.11
2023-01-19T18:33:55.645Z,0.11
2023-01-19T18:36:23.166Z,0.10
2023-01-19T18:38:50.307Z,0.09
2023-01-19T18:41:20.648Z,0.06
2023-01-19T18:43:48.617Z,0.06
2023-01-19T18:46:16.445Z,0.02
2023-01-19T18:48:44.274Z,-0.01
2023-01-19T18:51:16.577Z,-0.03
2023-01-19T18:53:45.041Z,-0.03
2023-01-19T18:56:15.267Z,-0.03
2023-01-19T18:58:43.324Z,-0.05
2023-01-19T19:01:25.473Z,-0.08
2023-01-19T19:03:54.605Z,-0.11
2023-01-19T19:06:24.034Z,-0.12
2023-01-19T19:08:52.616Z,-0.15
2023-01-19T19:11:22.351Z,-0.16
2023-01-19T19:14:02.110Z,-0.16
2023-01-19T19:16:30.426Z,-0.19
2023-01-19T19:18:59.079Z,-0.21
2023-01-19T19:21:26.629Z,-0.25
2023-01-19T19:23:56.601Z,-0.29
2023-01-19T19:26:27.008Z,-0.35
2023-01-19T19:28:54.038Z,-0.39
2023-01-19T19:31:23.564Z,-0.43
2023-01-19T19:33:51.230Z,-0.45
2023-01-19T19:36:20.533Z,-0.49
2023-01-19T19:38:49.465Z,-0.54
2023-01-19T19:41:24.533Z,-0.55
2023-01-19T19:43:53.057Z,-0.59
2023-01-19T19:46:22.872Z,-0.63
2023-01-19T19:48:50.403Z,-0.69
2023-01-19T19:51:25.676Z,-0.75
2023-01-19T19:53:56.059Z,-0.81
2023-01-19T19:56:25.647Z,-0.85
2023-01-19T19:58:56.481Z,-0.87
2023-01-19T20:01:32.930Z,-0.88
2023-01-19T20:04:08.432Z,-0.84
2023-01-19T20:06:38.908Z,-0.80
2023-01-19T20:09:09.276Z,-0.74
2023-01-19T20:11:36.495Z,-0.73
2023-01-19T20:14:09.635Z,-0.74
2023-01-19T20:16:37.203Z,-0.75
2023-01-19T20:19:05.102Z,-0.79
2023-01-19T20:21:35.821Z,-0.81
2023-01-19T20:24:12.648Z,-0.87
2023-01-19T20:26:43.524Z,-0.93
2023-01-19T20:29:11.926Z,-0.99
2023-01-19T20:31:45.296Z,-1.08
2023-01-19T20:34:15.319Z,-1.15
2023-01-19T20:36:43.883Z,-1.21
2023-01-19T20:39:12.758Z,-1.27
2023-01-19T20:41:44.752Z,-1.31
2023-01-19T20:44:22.381Z,-1.34
2023-01-19T20:46:50.367Z,-1.37
2023-01-19T20:49:19.114Z,-1.37
2023-01-19T20:51:46.966Z,-1.31
2023-01-19T20:54:18.264Z,-1.23
2023-01-19T20:56:45.284Z,-1.14
2023-01-19T20:59:13.164Z,-1.02
2023-01-19T21:01:41.097Z,-0.91
2023-01-19T21:04:08.619Z,-0.84
2023-01-19T21:06:36.694Z,-0.78
2023-01-19T21:09:04.625Z,-0.73
2023-01-19T21:11:31.754Z,-0.72
2023-01-19T21:13:58.814Z,-0.67
2023-01-19T21:16:29.846Z,-0.61
2023-01-19T21:18:56.864Z,-0.53
2023-01-19T21:21:30.819Z,-0.43
2023-01-19T21:24:00.837Z,-0.34
2023-01-19T21:26:30.210Z,-0.27
2023-01-19T21:29:02.509Z,-0.20
2023-01-19T21:31:30.281Z,-0.14
2023-01-19T21:33:58.671Z,-0.11
2023-01-19T21:36:26.062Z,-0.10
2023-01-19T21:38:55.577Z,-0.07
2023-01-19T21:41:22.866Z,-0.01
2023-01-19T21:43:49.893Z,0.06
2023-01-19T21:46:28.908Z,0.14
2023-01-19T21:48:58.889Z,0.19
2023-01-19T21:51:26.159Z,0.23
2023-01-19T21:53:55.354Z,0.28
2023-01-19T21:56:22.956Z,0.32
2023-01-19T21:58:49.869Z,0.36
2023-01-19T22:01:17.152Z,0.39
2023-01-19T22:03:44.222Z,0.40
2023-01-19T22:06:14.535Z,0.44
2023-01-19T22:08:42.640Z,0.45
2023-01-19T22:11:12.710Z,0.45
2023-01-19T22:13:40.623Z,0.45
2023-01-19T22:16:14.671Z,0.45
2023-01-19T22:18:45.392Z,0.44
2023-01-19T22:21:40.120Z,0.43
2023-01-19T22:24:07.641Z,0.44
2023-01-19T22:26:34.958Z,0.43
2023-01-19T22:29:03.531Z,0.44
2023-01-19T22:31:33.400Z,0.44
2023-01-19T22:34:00.556Z,0.46
2023-01-19T22:36:36.023Z,0.47
2023-01-19T22:39:09.729Z,0.44
2023-01-19T22:41:47.183Z,0.41
2023-01-19T22:44:20.141Z,0.40
2023-01-19T22:46:48.927Z,0.36
2023-01-19T22:49:18.339Z,0.30
2023-01-19T22:51:45.715Z,0.24
2023-01-19T22:54:13.289Z,0.24
2023-01-19T22:56:40.953Z,0.27
2023-01-19T22:59:08.715Z,0.32
2023-01-19T23:01:39.906Z,0.37
2023-01-19T23:04:10.783Z,0.43
2023-01-19T23:06:38.304Z,0.48
2023-01-19T23:09:11.393Z,0.53
2023-01-19T23:11:43.739Z,0.55
2023-01-19T23:14:17.217Z,0.61
2023-01-19T23:16:44.503Z,0.64
2023-01-19T23:19:12.918Z,0.67
2023-01-19T23:21:41.650Z,0.69
2023-01-19T23:24:09.078Z,0.71
2023-01-19T23:26:39.941Z,0.72
2023-01-19T23:29:13.640Z,0.72
2023-01-19T23:31:45.999Z,0.77
2023-01-19T23:34:16.233Z,0.77
2023-01-19T23:36:43.713Z,0.77
2023-01-19T23:39:18.092Z,0.76
2023-01-19T23:41:45.562Z,0.76
2023-01-19T23:44:13.089Z,0.75
2023-01-19T23:46:40.208Z,0.75
2023-01-19T23:49:07.238Z,0.78
2023-01-19T23:51:34.923Z,0.80
2023-01-19T23:54:02.651Z,0.81
2023-01-19T23:56:34.233Z,0.82
2023-01-19T23:59:06.616Z,0.81
